Time;durP1;ratioP1;P1;durP2;ratioP2;P2;SDS_P1;SDS_P2;PMS_P1;PMS_P2;Temp;Humidity;BMP_temperature;BMP_pressure;BME280_temperature;BME280_humidity;BME280_pressure;Samples;Min_cycle;Max_cycle;Signal;HPM_P1;HPM_P2
2022/09/24 00:01:45;;;;;;;8.07;6.67;;;;;;;;;;5072445;28;20459;-59
2022/09/24 00:04:13;;;;;;;7.13;6.30;;;;;;;;;;5072206;28;20530;-59
2022/09/24 00:06:41;;;;;;;6.80;6.10;;;;;;;;;;5072533;28;20537;-59
2022/09/24 00:09:10;;;;;;;7.43;6.73;;;;;;;;;;5072496;28;20891;-59
2022/09/24 00:11:37;;;;;;;7.27;6.30;;;;;;;;;;5072351;28;20846;-59
2022/09/24 00:14:05;;;;;;;7.43;6.40;;;;;;;;;;5072285;28;20490;-58
2022/09/24 00:16:33;;;;;;;6.43;5.90;;;;;;;;;;5072278;28;20455;-58
2022/09/24 00:19:01;;;;;;;8.17;6.30;;;;;;;;;;5072234;28;20455;-59
2022/09/24 00:21:29;;;;;;;7.33;6.63;;;;;;;;;;5072174;28;20478;-59
2022/09/24 00:23:57;;;;;;;7.50;6.70;;;;;;;;;;5072261;28;20447;-59
2022/09/24 00:29:11;;;;;;;8.20;6.97;;;;;;;;;;5072155;28;20527;-59
2022/09/24 00:31:38;;;;;;;8.80;7.17;;;;;;;;;;5074414;28;20482;-59
2022/09/24 00:34:05;;;;;;;9.23;8.30;;;;;;;;;;5075927;28;20444;-58
2022/09/24 00:36:32;;;;;;;8.53;7.63;;;;;;;;;;5075815;28;20823;-58
2022/09/24 00:39:00;;;;;;;10.20;7.70;;;;;;;;;;5075684;28;20451;-58
2022/09/24 00:41:29;;;;;;;8.50;7.80;;;;;;;;;;5075577;28;20458;-58
2022/09/24 00:43:56;;;;;;;8.37;7.67;;;;;;;;;;5075467;28;20817;-58
2022/09/24 00:46:25;;;;;;;8.30;7.50;;;;;;;;;;5075663;28;20802;-58
2022/09/24 00:48:53;;;;;;;9.43;8.47;;;;;;;;;;5075577;28;20542;-58
2022/09/24 00:51:22;;;;;;;11.30;9.63;;;;;;;;;;5075444;28;20478;-59
2022/09/24 00:53:50;;;;;;;9.80;8.80;;;;;;;;;;5075399;28;20447;-59
2022/09/24 00:56:17;;;;;;;9.97;9.07;;;;;;;;;;5075282;28;20447;-58
2022/09/24 00:58:47;;;;;;;10.73;8.53;;;;;;;;;;5075558;28;20447;-59
2022/09/24 01:01:14;;;;;;;8.03;7.23;;;;;;;;;;5075369;28;20457;-59
2022/09/24 01:03:41;;;;;;;6.70;6.17;;;;;;;;;;5075320;28;20541;-59
2022/09/24 01:06:08;;;;;;;8.20;6.90;;;;;;;;;;5075177;28;20444;-59
2022/09/24 01:08:35;;;;;;;6.87;6.13;;;;;;;;;;5075139;28;20479;-59
2022/09/24 01:11:14;;;;;;;6.47;5.97;;;;;;;;;;5074916;28;20830;-59
2022/09/24 01:13:54;;;;;;;7.27;6.53;;;;;;;;;;5075274;28;20443;-59
2022/09/24 01:16:28;;;;;;;6.47;5.87;;;;;;;;;;5075072;28;20806;-59
2022/09/24 01:18:59;;;;;;;6.77;6.10;;;;;;;;;;5074966;28;20443;-59
2022/09/24 01:21:33;;;;;;;8.50;6.13;;;;;;;;;;5074659;28;20490;-59
2022/09/24 01:24:05;;;;;;;6.63;6.03;;;;;;;;;;5074961;28;20452;-59
2022/09/24 01:26:48;;;;;;;6.77;6.10;;;;;;;;;;5074884;28;20784;-59
2022/09/24 01:29:40;;;;;;;8.40;6.80;;;;;;;;;;5074808;28;20443;-59
2022/09/24 01:32:09;;;;;;;7.00;6.40;;;;;;;;;;5074814;28;20483;-59
2022/09/24 01:34:40;;;;;;;8.90;8.10;;;;;;;;;;5074756;28;20447;-59
2022/09/24 01:37:07;;;;;;;7.30;6.70;;;;;;;;;;5074651;28;20451;-59
2022/09/24 01:39:36;;;;;;;6.30;5.70;;;;;;;;;;5074607;28;20458;-59
2022/09/24 01:42:03;;;;;;;7.03;6.13;;;;;;;;;;5073554;28;20450;-59
2022/09/24 01:44:30;;;;;;;5.93;5.43;;;;;;;;;;5074335;28;20439;-59
2022/09/24 01:46:59;;;;;;;7.23;6.27;;;;;;;;;;5074513;28;20542;-59
2022/09/24 01:49:27;;;;;;;7.30;6.27;;;;;;;;;;5074485;28;21040;-59
2022/09/24 01:51:57;;;;;;;6.10;5.70;;;;;;;;;;5074280;28;20483;-59
2022/09/24 01:54:26;;;;;;;6.80;6.30;;;;;;;;;;5074254;28;20452;-59
2022/09/24 01:56:56;;;;;;;6.63;6.03;;;;;;;;;;5074122;28;20502;-59
2022/09/24 01:59:26;;;;;;;6.70;6.10;;;;;;;;;;5074128;28;20988;-59
2022/09/24 02:01:56;;;;;;;6.37;5.87;;;;;;;;;;5074224;28;20504;-59
2022/09/24 02:04:26;;;;;;;8.83;6.57;;;;;;;;;;5074062;28;20447;-58
2022/09/24 02:06:56;;;;;;;6.60;6.00;;;;;;;;;;5074258;28;20439;-59
2022/09/24 02:09:33;;;;;;;6.80;6.20;;;;;;;;;;5073789;28;20444;-59
2022/09/24 02:12:02;;;;;;;6.70;6.20;;;;;;;;;;5073929;28;20482;-59
2022/09/24 02:14:32;;;;;;;6.13;5.67;;;;;;;;;;5073732;28;21032;-59
2022/09/24 02:16:59;;;;;;;6.03;5.53;;;;;;;;;;5073720;28;20454;-59
2022/09/24 02:19:29;;;;;;;6.57;6.07;;;;;;;;;;5073661;28;20846;-59
2022/09/24 02:21:57;;;;;;;6.73;6.23;;;;;;;;;;5073416;28;20475;-59
2022/09/24 02:24:26;;;;;;;6.80;6.00;;;;;;;;;;5073753;28;20447;-59
2022/09/24 02:26:53;;;;;;;6.30;5.80;;;;;;;;;;5073653;28;20447;-59
2022/09/24 02:29:22;;;;;;;6.37;5.97;;;;;;;;;;5073615;28;20447;-59
2022/09/24 02:31:49;;;;;;;6.20;5.73;;;;;;;;;;5073429;28;20866;-59
2022/09/24 02:34:21;;;;;;;7.10;6.03;;;;;;;;;;5073345;28;20447;-59
2022/09/24 02:36:50;;;;;;;6.40;5.80;;;;;;;;;;5073566;28;20459;-59
2022/09/24 02:39:17;;;;;;;6.53;5.93;;;;;;;;;;5073305;28;20951;-59
2022/09/24 02:41:46;;;;;;;6.87;6.37;;;;;;;;;;5073353;28;20458;-58
2022/09/24 02:44:14;;;;;;;6.57;6.07;;;;;;;;;;5073339;28;20532;-59
2022/09/24 02:46:41;;;;;;;6.63;6.13;;;;;;;;;;5073158;28;20926;-59
2022/09/24 02:49:08;;;;;;;6.40;5.50;;;;;;;;;;5073111;28;20451;-58
2022/09/24 02:51:35;;;;;;;5.63;5.33;;;;;;;;;;5073283;28;20483;-59
2022/09/24 02:54:03;;;;;;;6.63;6.23;;;;;;;;;;5073158;28;20443;-59
2022/09/24 02:56:30;;;;;;;6.00;5.60;;;;;;;;;;5073067;28;20947;-58
2022/09/24 02:58:57;;;;;;;5.93;5.43;;;;;;;;;;5073038;28;20814;-59
2022/09/24 03:01:25;;;;;;;5.70;5.20;;;;;;;;;;5072965;28;20451;-59
2022/09/24 03:03:52;;;;;;;6.70;6.10;;;;;;;;;;5073218;28;20807;-59
2022/09/24 03:06:19;;;;;;;5.90;5.40;;;;;;;;;;5073169;28;20448;-59
2022/09/24 03:08:46;;;;;;;5.23;4.90;;;;;;;;;;5073041;28;20482;-59
2022/09/24 03:11:15;;;;;;;5.77;5.40;;;;;;;;;;5072900;28;20830;-59
2022/09/24 03:13:41;;;;;;;8.23;6.10;;;;;;;;;;5072886;28;20450;-59
2022/09/24 03:16:09;;;;;;;13.23;6.40;;;;;;;;;;5073079;28;20458;-59
2022/09/24 03:18:36;;;;;;;6.07;5.57;;;;;;;;;;5072963;28;20454;-59
2022/09/24 03:21:05;;;;;;;6.10;5.20;;;;;;;;;;5072991;28;20556;-59
2022/09/24 03:23:32;;;;;;;6.23;5.73;;;;;;;;;;5072912;28;20531;-59
2022/09/24 03:25:59;;;;;;;10.10;6.23;;;;;;;;;;5072806;28;20443;-59
2022/09/24 03:28:27;;;;;;;5.97;5.47;;;;;;;;;;5072634;28;20449;-59
2022/09/24 03:30:59;;;;;;;5.50;5.10;;;;;;;;;;5072829;28;20458;-59
2022/09/24 03:33:27;;;;;;;6.20;5.80;;;;;;;;;;5072675;28;20458;-59
2022/09/24 03:35:56;;;;;;;5.63;5.23;;;;;;;;;;5072778;28;20543;-59
2022/09/24 03:38:23;;;;;;;6.20;5.70;;;;;;;;;;5072747;28;20521;-59
2022/09/24 03:40:50;;;;;;;8.07;5.90;;;;;;;;;;5072558;28;20462;-59
2022/09/24 03:43:17;;;;;;;7.40;5.40;;;;;;;;;;5072542;28;21020;-59
2022/09/24 03:45:45;;;;;;;5.93;5.53;;;;;;;;;;5072764;28;20447;-59
2022/09/24 03:48:12;;;;;;;8.00;6.33;;;;;;;;;;5072651;28;20448;-59
2022/09/24 03:50:39;;;;;;;6.10;5.60;;;;;;;;;;5072631;28;20453;-59
2022/09/24 03:53:06;;;;;;;5.93;5.53;;;;;;;;;;5072484;28;20522;-58
2022/09/24 03:55:33;;;;;;;6.77;6.07;;;;;;;;;;5072450;28;20452;-58
2022/09/24 03:58:00;;;;;;;7.00;6.30;;;;;;;;;;5072634;28;20444;-59
2022/09/24 04:00:27;;;;;;;6.60;6.00;;;;;;;;;;5072571;28;20535;-59
2022/09/24 04:02:56;;;;;;;5.70;5.30;;;;;;;;;;5072511;28;20450;-58
2022/09/24 04:05:23;;;;;;;6.53;5.93;;;;;;;;;;5073167;28;20798;-58
2022/09/24 04:07:50;;;;;;;6.80;6.23;;;;;;;;;;5076215;28;20454;-59
2022/09/24 04:10:17;;;;;;;6.03;5.63;;;;;;;;;;5076166;28;20534;-58
2022/09/24 04:12:44;;;;;;;6.47;5.87;;;;;;;;;;5076277;28;20482;-58
2022/09/24 04:15:11;;;;;;;7.37;6.67;;;;;;;;;;5076268;28;20447;-58
2022/09/24 04:17:38;;;;;;;7.17;6.47;;;;;;;;;;5076212;28;20451;-59
2022/09/24 04:20:07;;;;;;;6.13;5.50;;;;;;;;;;5076086;28;20454;-58
2022/09/24 04:22:34;;;;;;;7.27;6.67;;;;;;;;;;5075771;28;20566;-58
2022/09/24 04:25:02;;;;;;;6.03;5.47;;;;;;;;;;5076145;28;20450;-59
2022/09/24 04:27:29;;;;;;;7.33;6.63;;;;;;;;;;5075830;28;20515;-58
2022/09/24 04:29:56;;;;;;;7.93;6.53;;;;;;;;;;5075949;28;20447;-58
2022/09/24 04:32:23;;;;;;;7.00;6.30;;;;;;;;;;5075851;28;20830;-59
2022/09/24 04:34:50;;;;;;;7.23;6.53;;;;;;;;;;5075778;28;20550;-58
2022/09/24 04:37:18;;;;;;;7.20;6.60;;;;;;;;;;5075660;28;20447;-59
2022/09/24 04:39:45;;;;;;;7.33;6.70;;;;;;;;;;5075900;28;20633;-58
2022/09/24 04:42:16;;;;;;;7.33;6.83;;;;;;;;;;5075732;28;20931;-60
2022/09/24 04:44:46;;;;;;;6.03;5.50;;;;;;;;;;5075540;28;20455;-59
2022/09/24 04:47:13;;;;;;;5.53;5.13;;;;;;;;;;5075641;28;20447;-60
2022/09/24 04:49:40;;;;;;;6.60;6.10;;;;;;;;;;5075409;28;20965;-60
2022/09/24 04:52:07;;;;;;;6.47;5.97;;;;;;;;;;5075322;28;21013;-60
2022/09/24 04:54:36;;;;;;;7.33;6.63;;;;;;;;;;5075395;28;20455;-60
2022/09/24 04:57:02;;;;;;;6.80;5.60;;;;;;;;;;5075532;28;20451;-60
2022/09/24 04:59:29;;;;;;;7.23;6.50;;;;;;;;;;5075381;28;20443;-59
2022/09/24 05:01:57;;;;;;;6.10;5.70;;;;;;;;;;5075241;28;20814;-60
2022/09/24 05:04:24;;;;;;;6.63;6.13;;;;;;;;;;5075157;28;21012;-60
2022/09/24 05:06:51;;;;;;;6.43;5.87;;;;;;;;;;5075167;28;20443;-60
2022/09/24 05:09:18;;;;;;;14.90;6.23;;;;;;;;;;5075230;28;20447;-60
2022/09/24 05:11:46;;;;;;;9.40;6.80;;;;;;;;;;5075122;28;20467;-60
2022/09/24 05:14:13;;;;;;;7.23;6.53;;;;;;;;;;5075032;28;20447;-60
2022/09/24 05:16:40;;;;;;;6.83;6.37;;;;;;;;;;5074062;28;20451;-60
2022/09/24 05:19:07;;;;;;;6.77;6.13;;;;;;;;;;5074464;28;20447;-60
2022/09/24 05:21:34;;;;;;;6.33;5.53;;;;;;;;;;5074967;28;20479;-60
2022/09/24 05:24:01;;;;;;;6.37;5.87;;;;;;;;;;5074970;28;20452;-60
2022/09/24 05:29:14;;;;;;;7.50;6.80;;;;;;;;;;5074783;28;20989;-60
2022/09/24 05:31:40;;;;;;;7.03;6.33;;;;;;;;;;5074848;28;20448;-61
2022/09/24 05:34:07;;;;;;;8.93;6.93;;;;;;;;;;5074819;28;20803;-60
2022/09/24 05:36:34;;;;;;;7.33;6.60;;;;;;;;;;5074729;28;20747;-60
2022/09/24 05:39:01;;;;;;;12.03;8.43;;;;;;;;;;5074552;28;20542;-60
2022/09/24 05:41:28;;;;;;;7.53;6.60;;;;;;;;;;5074573;28;20534;-60
2022/09/24 05:43:57;;;;;;;6.93;6.33;;;;;;;;;;5074266;28;20506;-60
2022/09/24 05:46:25;;;;;;;6.63;5.90;;;;;;;;;;5074572;28;20448;-60
2022/09/24 05:48:52;;;;;;;11.70;7.80;;;;;;;;;;5074464;28;20806;-59
2022/09/24 05:51:19;;;;;;;10.67;8.40;;;;;;;;;;5074410;28;20451;-60
2022/09/24 05:53:46;;;;;;;9.03;8.13;;;;;;;;;;5074163;28;20483;-59
2022/09/24 05:56:12;;;;;;;8.90;8.00;;;;;;;;;;5074102;28;20837;-59
2022/09/24 05:58:39;;;;;;;9.90;9.00;;;;;;;;;;5074311;28;20439;-59
2022/09/24 06:01:06;;;;;;;7.93;7.23;;;;;;;;;;5074146;28;20465;-59
2022/09/24 06:03:35;;;;;;;10.37;8.30;;;;;;;;;;5074150;28;20540;-59
2022/09/24 06:06:02;;;;;;;8.10;7.30;;;;;;;;;;5074083;28;20444;-59
2022/09/24 06:08:30;;;;;;;6.90;6.40;;;;;;;;;;5073977;28;20447;-59
2022/09/24 06:10:59;;;;;;;8.20;7.33;;;;;;;;;;5073711;28;20992;-59
2022/09/24 06:13:26;;;;;;;7.60;6.90;;;;;;;;;;5073682;28;20479;-59
2022/09/24 06:15:53;;;;;;;7.50;6.80;;;;;;;;;;5073943;28;20458;-59
2022/09/24 06:18:20;;;;;;;7.20;6.70;;;;;;;;;;5073873;28;20541;-59
2022/09/24 06:20:48;;;;;;;6.97;6.47;;;;;;;;;;5073471;28;20538;-58
2022/09/24 06:23:15;;;;;;;7.23;6.60;;;;;;;;;;5073705;28;20942;-59
2022/09/24 06:25:42;;;;;;;6.73;6.27;;;;;;;;;;5073594;28;20443;-59
2022/09/24 06:28:09;;;;;;;8.83;6.67;;;;;;;;;;5073330;28;20486;-60
2022/09/24 06:30:37;;;;;;;6.83;6.30;;;;;;;;;;5073670;28;20449;-59
2022/09/24 06:33:05;;;;;;;9.00;6.53;;;;;;;;;;5073507;28;20483;-59
2022/09/24 06:35:34;;;;;;;7.50;6.50;;;;;;;;;;5073504;28;20870;-59
2022/09/24 06:38:02;;;;;;;8.63;6.40;;;;;;;;;;5073364;28;20447;-60
2022/09/24 06:40:29;;;;;;;8.07;7.47;;;;;;;;;;5073500;28;20447;-59
2022/09/24 06:42:57;;;;;;;6.93;6.43;;;;;;;;;;5073414;28;20443;-59
2022/09/24 06:45:25;;;;;;;7.37;6.77;;;;;;;;;;5073582;28;20490;-59
2022/09/24 06:47:53;;;;;;;8.10;6.07;;;;;;;;;;5073319;28;20447;-59
2022/09/24 06:50:20;;;;;;;7.70;6.90;;;;;;;;;;5073156;28;20542;-59
2022/09/24 06:52:47;;;;;;;8.13;7.40;;;;;;;;;;5072949;28;20978;-59
2022/09/24 06:55:15;;;;;;;8.07;7.27;;;;;;;;;;5073284;28;20448;-59
2022/09/24 06:57:42;;;;;;;8.53;7.70;;;;;;;;;;5073217;28;20509;-59
2022/09/24 07:00:11;;;;;;;7.40;6.80;;;;;;;;;;5073070;28;20453;-59
2022/09/24 07:02:37;;;;;;;7.80;7.13;;;;;;;;;;5073020;28;20474;-59
2022/09/24 07:05:05;;;;;;;7.80;7.00;;;;;;;;;;5072797;28;20980;-60
2022/09/24 07:07:33;;;;;;;8.20;7.00;;;;;;;;;;5073129;28;20454;-59
2022/09/24 07:10:00;;;;;;;7.47;6.93;;;;;;;;;;5073023;28;20486;-60
2022/09/24 07:12:29;;;;;;;13.10;8.00;;;;;;;;;;5072836;28;20478;-60
2022/09/24 07:14:56;;;;;;;7.63;6.47;;;;;;;;;;5072930;28;20458;-60
2022/09/24 07:17:23;;;;;;;6.93;6.43;;;;;;;;;;5072815;28;20473;-59
2022/09/24 07:19:50;;;;;;;7.27;6.50;;;;;;;;;;5072694;28;20543;-60
2022/09/24 07:22:16;;;;;;;5.90;5.40;;;;;;;;;;5072566;28;20475;-59
2022/09/24 07:24:43;;;;;;;7.40;6.90;;;;;;;;;;5073076;28;20542;-59
2022/09/24 07:27:10;;;;;;;7.03;6.40;;;;;;;;;;5072954;28;20538;-59
2022/09/24 07:29:39;;;;;;;9.07;7.23;;;;;;;;;;5072900;28;20542;-59
2022/09/24 07:32:06;;;;;;;11.70;7.40;;;;;;;;;;5072666;28;20451;-59
2022/09/24 07:34:33;;;;;;;7.90;7.10;;;;;;;;;;5072786;28;20451;-59
2022/09/24 07:37:00;;;;;;;14.90;7.00;;;;;;;;;;5072703;28;20443;-59
2022/09/24 07:39:27;;;;;;;8.40;7.13;;;;;;;;;;5072646;28;20501;-59
2022/09/24 07:41:54;;;;;;;8.73;7.50;;;;;;;;;;5075960;28;20465;-59
2022/09/24 07:44:22;;;;;;;7.63;6.93;;;;;;;;;;5076713;28;20446;-59
2022/09/24 07:46:51;;;;;;;8.00;7.30;;;;;;;;;;5076513;28;20447;-59
2022/09/24 07:49:18;;;;;;;7.93;6.50;;;;;;;;;;5076723;28;20664;-59
2022/09/24 07:51:45;;;;;;;6.80;6.03;;;;;;;;;;5076683;28;20449;-59
2022/09/24 07:54:12;;;;;;;9.03;7.03;;;;;;;;;;5076482;28;20490;-60
2022/09/24 07:56:39;;;;;;;7.07;6.37;;;;;;;;;;5076469;28;20807;-59
2022/09/24 07:59:06;;;;;;;7.37;6.63;;;;;;;;;;5076316;28;20487;-60
2022/09/24 08:01:33;;;;;;;9.63;6.90;;;;;;;;;;5076494;28;20962;-60
2022/09/24 08:04:03;;;;;;;9.60;7.77;;;;;;;;;;5076379;28;20451;-60
2022/09/24 08:06:32;;;;;;;7.40;6.70;;;;;;;;;;5076352;28;20815;-60
2022/09/24 08:08:59;;;;;;;7.23;6.47;;;;;;;;;;5076193;28;20474;-59
2022/09/24 08:11:26;;;;;;;7.50;6.90;;;;;;;;;;5076000;28;20497;-60
2022/09/24 08:13:53;;;;;;;6.80;6.20;;;;;;;;;;5075827;28;20501;-59
2022/09/24 08:16:20;;;;;;;9.23;6.40;;;;;;;;;;5076083;28;20454;-60
2022/09/24 08:18:47;;;;;;;6.87;6.37;;;;;;;;;;5075944;28;20461;-59
2022/09/24 08:21:16;;;;;;;6.30;5.70;;;;;;;;;;5075832;28;20834;-59
2022/09/24 08:23:44;;;;;;;7.63;6.83;;;;;;;;;;5075819;28;20454;-59
2022/09/24 08:26:11;;;;;;;7.83;7.13;;;;;;;;;;5075819;28;20447;-60
2022/09/24 08:28:39;;;;;;;6.30;5.70;;;;;;;;;;5076080;28;20443;-59
2022/09/24 08:31:07;;;;;;;9.13;6.13;;;;;;;;;;5075966;28;20451;-59
2022/09/24 08:33:35;;;;;;;6.40;6.00;;;;;;;;;;5075754;28;20573;-59
2022/09/24 08:36:02;;;;;;;7.70;6.00;;;;;;;;;;5075661;28;20810;-59
2022/09/24 08:38:30;;;;;;;6.97;6.40;;;;;;;;;;5075545;28;20447;-59
2022/09/24 08:41:01;;;;;;;6.20;5.80;;;;;;;;;;5075552;28;20954;-59
2022/09/24 08:43:37;;;;;;;6.50;5.83;;;;;;;;;;5075768;28;20455;-59
2022/09/24 08:48:54;;;;;;;6.70;5.90;;;;;;;;;;5075528;28;20441;-59
2022/09/24 08:51:23;;;;;;;6.30;5.70;;;;;;;;;;5074948;28;20450;-59
2022/09/24 08:53:53;;;;;;;5.80;5.40;;;;;;;;;;5075559;28;21010;-59
2022/09/24 08:56:21;;;;;;;5.97;5.57;;;;;;;;;;5075389;28;20447;-59
2022/09/24 08:58:51;;;;;;;5.53;5.10;;;;;;;;;;5075367;28;20463;-59
2022/09/24 09:01:21;;;;;;;5.67;5.23;;;;;;;;;;5075400;28;20501;-59
2022/09/24 09:03:51;;;;;;;5.63;5.23;;;;;;;;;;5075651;28;20534;-59
2022/09/24 09:06:26;;;;;;;7.53;5.40;;;;;;;;;;5075388;28;20486;-60
2022/09/24 09:08:57;;;;;;;6.17;5.57;;;;;;;;;;5075274;28;20451;-59
2022/09/24 09:11:27;;;;;;;6.10;5.50;;;;;;;;;;5075192;28;20538;-59
2022/09/24 09:13:57;;;;;;;11.00;5.27;;;;;;;;;;5075093;28;20479;-59
2022/09/24 09:16:26;;;;;;;5.63;5.20;;;;;;;;;;5074858;28;20447;-59
2022/09/24 09:18:55;;;;;;;5.07;4.60;;;;;;;;;;5075139;28;20542;-59
2022/09/24 09:21:27;;;;;;;5.33;4.83;;;;;;;;;;5074813;28;20475;-59
2022/09/24 09:23:57;;;;;;;4.80;4.50;;;;;;;;;;5074974;28;20453;-60
2022/09/24 09:26:26;;;;;;;7.00;4.90;;;;;;;;;;5074819;28;20538;-60
2022/09/24 09:28:56;;;;;;;5.30;4.77;;;;;;;;;;5074676;28;20448;-59
2022/09/24 09:31:28;;;;;;;6.20;5.17;;;;;;;;;;5074826;28;20443;-59
2022/09/24 09:34:05;;;;;;;5.87;5.30;;;;;;;;;;5074575;28;20510;-59
2022/09/24 09:36:36;;;;;;;5.50;4.63;;;;;;;;;;5074697;28;20490;-59
2022/09/24 09:39:13;;;;;;;6.63;5.30;;;;;;;;;;5074675;28;20451;-59
2022/09/24 09:41:42;;;;;;;4.83;4.43;;;;;;;;;;5074593;28;20457;-60
2022/09/24 09:44:12;;;;;;;4.97;4.67;;;;;;;;;;5074526;28;20967;-59
2022/09/24 09:46:43;;;;;;;5.37;4.80;;;;;;;;;;5074606;28;20547;-59
2022/09/24 09:49:10;;;;;;;5.20;4.90;;;;;;;;;;5074367;28;20461;-60
2022/09/24 09:51:39;;;;;;;6.10;5.50;;;;;;;;;;5074270;28;20834;-60
2022/09/24 09:54:07;;;;;;;5.73;5.20;;;;;;;;;;5074400;28;20476;-60
2022/09/24 09:56:36;;;;;;;5.57;5.13;;;;;;;;;;5074112;28;20452;-60
2022/09/24 09:59:05;;;;;;;5.87;5.27;;;;;;;;;;5074182;28;20810;-59
2022/09/24 10:01:33;;;;;;;5.43;5.03;;;;;;;;;;5074112;28;20448;-59
2022/09/24 10:04:03;;;;;;;5.77;5.27;;;;;;;;;;5073138;28;20448;-60
2022/09/24 10:06:31;;;;;;;15.53;6.83;;;;;;;;;;5073823;28;21049;-60
2022/09/24 10:09:08;;;;;;;6.47;5.87;;;;;;;;;;5074017;28;20455;-60
2022/09/24 10:11:35;;;;;;;6.30;5.37;;;;;;;;;;5074001;28;20788;-60
2022/09/24 10:14:03;;;;;;;6.37;5.87;;;;;;;;;;5073869;28;20483;-59
2022/09/24 10:16:29;;;;;;;5.80;5.30;;;;;;;;;;5073755;28;20444;-60
2022/09/24 10:18:56;;;;;;;5.60;5.10;;;;;;;;;;5073613;28;20451;-60
2022/09/24 10:21:27;;;;;;;10.20;6.30;;;;;;;;;;5073593;28;20826;-60
2022/09/24 10:23:59;;;;;;;7.23;5.50;;;;;;;;;;5073544;28;20447;-59
2022/09/24 10:26:35;;;;;;;6.17;5.67;;;;;;;;;;5073672;28;20451;-60
2022/09/24 10:31:47;;;;;;;6.57;6.03;;;;;;;;;;5073868;28;20782;-60
2022/09/24 10:34:22;;;;;;;6.47;5.77;;;;;;;;;;5073525;28;20490;-60
2022/09/24 10:36:53;;;;;;;7.80;6.20;;;;;;;;;;5073429;28;20455;-60
2022/09/24 10:39:21;;;;;;;5.57;5.17;;;;;;;;;;5073382;28;20449;-60
2022/09/24 10:41:50;;;;;;;6.10;5.03;;;;;;;;;;5073157;28;20954;-60
2022/09/24 10:44:18;;;;;;;6.23;5.30;;;;;;;;;;5073334;28;20566;-60
2022/09/24 10:46:51;;;;;;;8.50;5.33;;;;;;;;;;5073416;28;20447;-59
2022/09/24 10:49:23;;;;;;;4.93;4.53;;;;;;;;;;5073245;28;20839;-60
2022/09/24 10:51:55;;;;;;;4.90;4.60;;;;;;;;;;5073209;28;20461;-60
2022/09/24 10:54:32;;;;;;;5.83;5.20;;;;;;;;;;5073010;28;20981;-60
2022/09/24 10:57:01;;;;;;;5.43;4.40;;;;;;;;;;5073248;28;20447;-60
2022/09/24 10:59:35;;;;;;;4.77;4.27;;;;;;;;;;5073165;28;20454;-59
2022/09/24 11:02:10;;;;;;;4.73;4.13;;;;;;;;;;5073104;28;20787;-60
2022/09/24 11:04:45;;;;;;;9.20;4.97;;;;;;;;;;5072979;28;20451;-60
2022/09/24 11:07:23;;;;;;;4.97;4.57;;;;;;;;;;5073132;28;20474;-60
2022/09/24 11:09:52;;;;;;;7.10;5.07;;;;;;;;;;5072983;28;20542;-60
2022/09/24 11:12:24;;;;;;;6.97;4.97;;;;;;;;;;5072954;28;20447;-60
2022/09/24 11:14:57;;;;;;;4.93;4.57;;;;;;;;;;5072787;28;20904;-59
2022/09/24 11:17:28;;;;;;;5.30;4.77;;;;;;;;;;5072483;28;20832;-60
2022/09/24 11:20:10;;;;;;;5.33;4.93;;;;;;;;;;5072969;28;20451;-60
2022/09/24 11:22:43;;;;;;;5.03;4.73;;;;;;;;;;5072683;28;20949;-60
2022/09/24 11:25:25;;;;;;;4.87;4.47;;;;;;;;;;5072783;28;20449;-60
2022/09/24 11:27:58;;;;;;;9.00;7.83;;;;;;;;;;5071276;28;20478;-60
2022/09/24 11:30:28;;;;;;;9.03;5.07;;;;;;;;;;5072826;28;20542;-60
2022/09/24 11:33:01;;;;;;;31.03;7.60;;;;;;;;;;5072776;28;20629;-60
2022/09/24 11:35:42;;;;;;;4.50;4.10;;;;;;;;;;5072408;28;21016;-60
2022/09/24 11:38:10;;;;;;;5.93;5.10;;;;;;;;;;5072537;28;20457;-60
2022/09/24 11:40:50;;;;;;;5.97;5.47;;;;;;;;;;5072733;28;20803;-60
2022/09/24 11:43:26;;;;;;;7.50;4.77;;;;;;;;;;5072593;28;20447;-60
2022/09/24 11:45:59;;;;;;;6.90;5.20;;;;;;;;;;5072425;28;20451;-60
2022/09/24 11:48:35;;;;;;;4.77;4.47;;;;;;;;;;5072228;28;20451;-60
2022/09/24 11:51:07;;;;;;;5.07;4.50;;;;;;;;;;5072528;28;20826;-60
2022/09/24 11:53:37;;;;;;;5.77;5.20;;;;;;;;;;5072363;28;20965;-60
2022/09/24 11:56:10;;;;;;;6.60;4.70;;;;;;;;;;5072268;28;20443;-60
2022/09/24 11:58:42;;;;;;;5.87;4.43;;;;;;;;;;5072290;28;20447;-60
2022/09/24 12:01:11;;;;;;;5.00;4.60;;;;;;;;;;5072157;28;20538;-59
2022/09/24 12:03:40;;;;;;;6.03;5.47;;;;;;;;;;5072170;28;20957;-60
2022/09/24 12:06:08;;;;;;;6.53;4.80;;;;;;;;;;5072081;28;20942;-60
2022/09/24 12:08:38;;;;;;;6.17;5.27;;;;;;;;;;5072065;28;20458;-60
2022/09/24 12:11:09;;;;;;;6.30;5.80;;;;;;;;;;5072376;28;20499;-60
2022/09/24 12:13:39;;;;;;;4.73;4.33;;;;;;;;;;5072079;28;20568;-59
2022/09/24 12:16:10;;;;;;;5.17;4.70;;;;;;;;;;5072418;28;20443;-60
2022/09/24 12:18:42;;;;;;;6.13;4.77;;;;;;;;;;5072338;28;20906;-59
2022/09/24 12:21:11;;;;;;;4.90;4.50;;;;;;;;;;5072137;28;20475;-60
2022/09/24 12:23:40;;;;;;;4.23;3.90;;;;;;;;;;5072062;28;20447;-60
2022/09/24 12:26:07;;;;;;;5.60;5.10;;;;;;;;;;5072299;28;20447;-59
2022/09/24 12:34:18;;;;;;;4.20;3.97;;;;;;;;;;5075635;28;20474;-60
2022/09/24 12:36:53;;;;;;;5.20;4.80;;;;;;;;;;5075779;28;20778;-59
2022/09/24 12:39:20;;;;;;;5.00;4.60;;;;;;;;;;5075741;28;20447;-60
2022/09/24 12:41:50;;;;;;;5.60;4.87;;;;;;;;;;5075562;28;20444;-58
2022/09/24 12:44:19;;;;;;;5.07;4.47;;;;;;;;;;5075374;28;20530;-59
2022/09/24 12:46:50;;;;;;;4.20;3.90;;;;;;;;;;5075230;28;20450;-59
2022/09/24 12:49:20;;;;;;;3.90;3.60;;;;;;;;;;5075583;28;20455;-59
2022/09/24 12:51:47;;;;;;;3.93;3.70;;;;;;;;;;5075518;28;20473;-59
2022/09/24 12:54:23;;;;;;;4.23;3.93;;;;;;;;;;5075368;28;20827;-59
2022/09/24 12:56:50;;;;;;;4.03;3.83;;;;;;;;;;5075378;28;20876;-59
2022/09/24 12:59:35;;;;;;;5.67;3.87;;;;;;;;;;5075193;28;20542;-59
2022/09/24 13:02:15;;;;;;;5.60;5.20;;;;;;;;;;5075419;28;20806;-60
2022/09/24 13:04:44;;;;;;;4.43;4.03;;;;;;;;;;5075281;28;20819;-60
2022/09/24 13:07:26;;;;;;;4.50;4.10;;;;;;;;;;5075153;28;20444;-60
2022/09/24 13:09:53;;;;;;;3.60;3.40;;;;;;;;;;5075084;28;20469;-60
2022/09/24 13:12:21;;;;;;;5.50;4.30;;;;;;;;;;5075249;28;20605;-58
2022/09/24 13:14:50;;;;;;;5.13;4.73;;;;;;;;;;5075147;28;20505;-59
2022/09/24 13:17:18;;;;;;;8.33;3.90;;;;;;;;;;5075042;28;20875;-59
2022/09/24 13:19:47;;;;;;;5.00;4.60;;;;;;;;;;5074965;28;20440;-59
2022/09/24 13:22:22;;;;;;;4.60;4.30;;;;;;;;;;5074561;28;20515;-59
2022/09/24 13:24:50;;;;;;;4.93;4.50;;;;;;;;;;5074968;28;20615;-59
2022/09/24 13:27:21;;;;;;;4.60;4.30;;;;;;;;;;5075010;28;20453;-59
2022/09/24 13:29:48;;;;;;;5.30;4.80;;;;;;;;;;5074855;28;20451;-59
2022/09/24 13:32:17;;;;;;;6.00;5.50;;;;;;;;;;5074750;28;20536;-59
2022/09/24 13:34:46;;;;;;;6.97;6.27;;;;;;;;;;5074547;28;20550;-59
2022/09/24 13:37:20;;;;;;;4.97;4.57;;;;;;;;;;5074391;28;20451;-59
2022/09/24 13:39:49;;;;;;;4.70;4.30;;;;;;;;;;5073874;28;20994;-59
2022/09/24 13:42:18;;;;;;;4.70;4.30;;;;;;;;;;5074628;28;20502;-59
2022/09/24 13:44:47;;;;;;;6.17;4.43;;;;;;;;;;5074466;28;20447;-59
2022/09/24 13:47:15;;;;;;;5.73;5.33;;;;;;;;;;5074267;28;20538;-59
2022/09/24 13:49:45;;;;;;;4.90;4.50;;;;;;;;;;5074516;28;20542;-59
2022/09/24 13:52:15;;;;;;;5.20;4.70;;;;;;;;;;5074396;28;20450;-59
2022/09/24 13:54:48;;;;;;;6.63;5.90;;;;;;;;;;5074233;28;20471;-59
2022/09/24 13:57:20;;;;;;;5.20;4.70;;;;;;;;;;5074314;28;20497;-59
2022/09/24 13:59:47;;;;;;;4.93;4.53;;;;;;;;;;5074067;28;20458;-59
2022/09/24 14:02:23;;;;;;;5.07;4.60;;;;;;;;;;5074318;28;20452;-60
2022/09/24 14:04:53;;;;;;;4.70;4.30;;;;;;;;;;5074175;28;20875;-59
2022/09/24 14:07:22;;;;;;;4.87;4.50;;;;;;;;;;5074039;28;20443;-59
2022/09/24 14:09:50;;;;;;;5.87;4.30;;;;;;;;;;5073966;28;20950;-60
2022/09/24 14:12:20;;;;;;;5.67;4.80;;;;;;;;;;5073917;28;20530;-59
2022/09/24 14:14:52;;;;;;;4.53;4.13;;;;;;;;;;5073985;28;20521;-59
2022/09/24 14:17:19;;;;;;;4.73;4.30;;;;;;;;;;5073971;28;20443;-59
2022/09/24 14:19:46;;;;;;;4.70;4.30;;;;;;;;;;5073894;28;20454;-59
2022/09/24 14:22:16;;;;;;;5.33;4.93;;;;;;;;;;5073589;28;20844;-59
2022/09/24 14:24:45;;;;;;;5.60;5.10;;;;;;;;;;5073543;28;20455;-59
2022/09/24 14:27:14;;;;;;;5.60;5.10;;;;;;;;;;5073789;28;20443;-60
2022/09/24 14:29:45;;;;;;;5.40;4.90;;;;;;;;;;5073669;28;20534;-59
2022/09/24 14:32:20;;;;;;;6.03;4.87;;;;;;;;;;5073539;28;20820;-59
2022/09/24 14:34:51;;;;;;;4.97;4.67;;;;;;;;;;5073468;28;20489;-59
2022/09/24 14:37:20;;;;;;;5.83;5.23;;;;;;;;;;5073453;28;20452;-59
2022/09/24 14:39:49;;;;;;;5.20;4.70;;;;;;;;;;5073548;28;20888;-59
2022/09/24 14:42:21;;;;;;;4.70;4.40;;;;;;;;;;5073326;28;20443;-60
2022/09/24 14:44:49;;;;;;;5.40;5.00;;;;;;;;;;5073345;28;20450;-59
2022/09/24 14:47:26;;;;;;;4.77;4.47;;;;;;;;;;5073184;28;20447;-60
2022/09/24 14:49:53;;;;;;;4.83;4.27;;;;;;;;;;5072821;28;20922;-59
2022/09/24 14:52:29;;;;;;;4.80;4.50;;;;;;;;;;5073326;28;20448;-60
2022/09/24 14:55:15;;;;;;;5.60;5.10;;;;;;;;;;5073128;28;20475;-59
2022/09/24 14:57:43;;;;;;;4.97;4.57;;;;;;;;;;5073025;28;20474;-59
2022/09/24 15:00:20;;;;;;;5.20;4.80;;;;;;;;;;5072923;28;20534;-59
2022/09/24 15:02:49;;;;;;;5.33;4.83;;;;;;;;;;5073049;28;20961;-59
2022/09/24 15:05:16;;;;;;;6.57;5.43;;;;;;;;;;5073063;28;20877;-60
2022/09/24 15:07:43;;;;;;;5.60;5.20;;;;;;;;;;5072952;28;20450;-60
2022/09/24 15:10:21;;;;;;;5.20;4.80;;;;;;;;;;5072872;28;20479;-59
2022/09/24 15:12:48;;;;;;;5.57;5.17;;;;;;;;;;5072804;28;20451;-59